EGLCTTCP

Guest
Details From EGLC - London City
To TTCP - Tobago Crown Point
Flight Number -
Tags Generated
Created
Modified
Stats Distance 3,805 nm / 7,047 km
Max Altitude 0 ft / 0 m
Waypoints 4
Social Downloads 1
Likes 0
Share VATSIM

Download

Looking for another format? Having issues loading an existing format? Contact us
Advertisement - Login to hide

Notes

Generated

Route

EGLC GITUS DANOT TTCP

ID Type Via Altitude Latitude Longitude Leg Dist Tot Dist Heading (true) Name
O EGLC APT - 0 ft / 0 m 51.50558˚ 0.04414˚ - 0 nm - -
GITUS FIX - 0 ft / 0 m 50.33333˚ -5.70000˚ 228 nm 228 nm 254° / 250° -
DANOT FIX - 0 ft / 0 m 11.48167˚ -60.60000˚ 3551 nm 3780 nm 249° / 217° -
O TTCP APT - 0 ft / 0 m 11.15056˚ -60.84472˚ 24 nm 3804 nm 216° / 216° -

Altitude Profile

Advertisement - Login to hide

Weather


0- 5 10 15 20 25 30 35+ Temperature / ° C

Clouds and Precipitation
Forecast for 2017-12-16 06:00 UTC. Updated an hour ago

Ground ~20,000 ft ~40,000 ft Winds

EGLC

Details ICAO EGLC (LCY)
Name London City
Region United Kingdom
Timezone Europe/London (UTC+0.0)
Stats Elevation 19 ft / 6 m (AMSL)
Location 51.505231° 0.055175°
Runways 1
Magnetic Variation 0.384° W

METAR

EGLC 160350Z AUTO 29007KT 9999 NCD 03/M01 Q1013

Decode

TAF

Not found

Departure Runways

ID Width Length Bearing (true) Bearing (mag) Surface Threshold Offset Overrun Length
09 98 ft / 30 m 4,931 ft / 1,503 m 92.89° 93.27° Concrete 322 ft / 98 m 164 ft / 50 m
27 98 ft / 30 m 4,931 ft / 1,503 m 272.91° 273.29° Concrete 243 ft / 74 m 279 ft / 85 m

TTCP

Details ICAO TTCP (TAB)
Name Tobago/Crown Point Intl
Region Trinidad and Tobago
Timezone America/Port_of_Spain (UTC-4.0)
Stats Elevation 36 ft / 11 m (AMSL)
Location 11.149660° -60.832196°
Runways 1
Magnetic Variation 15.193° W

METAR

TTCP 160400Z 00000KT 9999 FEW016 25/21 Q1014 NOSIG

Decode

TAF

Not found

Destination Runways

ID Width Length Bearing (true) Bearing (mag) Surface Threshold Offset Overrun Length
11 148 ft / 45 m 8,995 ft / 2,742 m 94.17° 109.36° Asphalt 1,004 ft / 306 m 0 ft / 0 m
29 148 ft / 45 m 8,995 ft / 2,742 m 274.17° 289.36° Asphalt 0 ft / 0 m 299 ft / 91 m

Approach Navaids

Runway Type Ident Frequency Range Bearing (true) Bearing (mag) Slope Elevation
11 Localiser ITAB 109.30 MHz 18 nm / 33 km 94.17° 109.36° - 36 ft / 11 m (AMSL)
11 Glidescope ITAB 109.30 MHz 10 nm / 19 km 94.17° 109.36° 3.00° 36 ft / 11 m (AMSL)
11 DME ITAB 109.30 MHz 18 nm / 33 km - - - 36 ft / 11 m (AMSL)